createdAt,value
2023-03-17T00:00:48.360Z,-3.23
2023-03-17T00:03:25.938Z,-3.25
2023-03-17T00:05:55.240Z,-3.27
2023-03-17T00:08:37.206Z,-3.28
2023-03-17T00:11:14.914Z,-3.28
2023-03-17T00:13:44.665Z,-3.29
2023-03-17T00:16:20.164Z,-3.32
2023-03-17T00:18:50.510Z,-3.35
2023-03-17T00:21:26.109Z,-3.36
2023-03-17T00:23:55.440Z,-3.38
2023-03-17T00:26:24.264Z,-3.38
2023-03-17T00:28:54.784Z,-3.38
2023-03-17T00:31:25.552Z,-3.38
2023-03-17T00:33:55.213Z,-3.38
2023-03-17T00:36:28.068Z,-3.40
2023-03-17T00:38:56.417Z,-3.40
2023-03-17T00:41:27.350Z,-3.41
2023-03-17T00:43:55.664Z,-3.42
2023-03-17T00:46:35.469Z,-3.44
2023-03-17T00:49:14.313Z,-3.45
2023-03-17T00:51:43.877Z,-3.47
2023-03-17T00:54:13.771Z,-3.49
2023-03-17T00:56:42.376Z,-3.50
2023-03-17T00:59:20.647Z,-3.51
2023-03-17T01:01:49.068Z,-3.54
2023-03-17T01:04:17.304Z,-3.56
2023-03-17T01:06:49.410Z,-3.59
2023-03-17T01:09:24.251Z,-3.61
2023-03-17T01:11:53.138Z,-3.63
2023-03-17T01:14:21.725Z,-3.65
2023-03-17T01:16:49.845Z,-3.68
2023-03-17T01:19:18.098Z,-3.69
2023-03-17T01:21:48.137Z,-3.71
2023-03-17T01:24:16.214Z,-3.72
2023-03-17T01:26:44.720Z,-3.76
2023-03-17T01:29:13.929Z,-3.77
2023-03-17T01:31:42.247Z,-3.79
2023-03-17T01:34:11.616Z,-3.78
2023-03-17T01:36:40.635Z,-3.79
2023-03-17T01:39:09.392Z,-3.80
2023-03-17T01:41:40.092Z,-3.80
2023-03-17T01:44:17.028Z,-3.81
2023-03-17T01:46:47.503Z,-3.82
2023-03-17T01:49:19.471Z,-3.83
2023-03-17T01:51:53.515Z,-3.83
2023-03-17T01:54:24.703Z,-3.84
2023-03-17T01:56:57.500Z,-3.86
2023-03-17T01:59:31.763Z,-3.88
2023-03-17T02:02:05.772Z,-3.88
2023-03-17T02:04:34.642Z,-3.89
2023-03-17T02:07:05.157Z,-3.90
2023-03-17T02:09:34.347Z,-3.91
2023-03-17T02:12:05.381Z,-3.93
2023-03-17T02:14:34.200Z,-3.93
2023-03-17T02:17:03.999Z,-3.92
2023-03-17T02:19:32.090Z,-3.92
2023-03-17T02:22:00.828Z,-3.93
2023-03-17T02:24:41.525Z,-3.96
2023-03-17T02:27:34.891Z,-3.97
2023-03-17T02:30:04.948Z,-3.95
2023-03-17T02:32:36.611Z,-3.93
2023-03-17T02:35:07.229Z,-3.92
2023-03-17T02:37:38.291Z,-3.89
2023-03-17T02:40:07.902Z,-3.87
2023-03-17T02:42:36.694Z,-3.86
2023-03-17T02:45:06.548Z,-3.87
2023-03-17T02:47:34.971Z,-3.91
2023-03-17T02:50:04.857Z,-3.93
2023-03-17T02:52:33.303Z,-3.93
2023-03-17T02:55:01.416Z,-3.91
2023-03-17T02:57:29.468Z,-3.89
2023-03-17T02:59:57.626Z,-3.84
2023-03-17T03:02:25.727Z,-3.81
2023-03-17T03:04:54.277Z,-3.80
2023-03-17T03:07:22.972Z,-3.80
2023-03-17T03:09:51.327Z,-3.81
2023-03-17T03:12:19.407Z,-3.77
2023-03-17T03:14:47.714Z,-3.74
2023-03-17T03:17:16.539Z,-3.70
2023-03-17T03:19:44.979Z,-3.66
2023-03-17T03:22:13.236Z,-3.63
2023-03-17T03:24:41.736Z,-3.60
2023-03-17T03:27:09.951Z,-3.61
2023-03-17T03:29:38.368Z,-3.65
2023-03-17T03:32:07.347Z,-3.69
2023-03-17T03:34:35.619Z,-3.70
2023-03-17T03:37:03.792Z,-3.71
2023-03-17T03:39:32.003Z,-3.70
2023-03-17T03:42:00.097Z,-3.66
2023-03-17T03:44:28.268Z,-3.60
2023-03-17T03:46:56.291Z,-3.53
2023-03-17T03:49:25.608Z,-3.45
2023-03-17T03:51:53.774Z,-3.35
2023-03-17T03:54:22.688Z,-3.25
2023-03-17T03:56:50.793Z,-3.14
2023-03-17T03:59:18.966Z,-3.05
2023-03-17T04:01:47.090Z,-2.96
2023-03-17T04:04:15.507Z,-2.89
2023-03-17T04:06:43.758Z,-2.81
2023-03-17T04:09:12.730Z,-2.74
2023-03-17T04:11:40.876Z,-2.69
2023-03-17T04:14:09.074Z,-2.63
2023-03-17T04:16:37.290Z,-2.57
2023-03-17T04:19:05.424Z,-2.51
2023-03-17T04:21:33.573Z,-2.47
2023-03-17T04:24:01.608Z,-2.43
2023-03-17T04:26:29.618Z,-2.39
2023-03-17T04:28:58.652Z,-2.34
2023-03-17T04:31:26.764Z,-2.32
2023-03-17T04:33:54.884Z,-2.29
2023-03-17T04:36:24.467Z,-2.26
2023-03-17T04:38:52.790Z,-2.25
2023-03-17T04:41:21.385Z,-2.23
2023-03-17T04:43:49.680Z,-2.21
2023-03-17T04:46:17.719Z,-2.19
2023-03-17T04:48:45.782Z,-2.18
2023-03-17T04:51:14.011Z,-2.16
2023-03-17T04:53:42.060Z,-2.14
2023-03-17T04:56:10.718Z,-2.14
2023-03-17T04:58:39.832Z,-2.14
2023-03-17T05:01:08.505Z,-2.13
2023-03-17T05:03:36.697Z,-2.11
2023-03-17T05:06:06.156Z,-2.10
2023-03-17T05:08:34.420Z,-2.08
2023-03-17T05:11:02.797Z,-2.06
2023-03-17T05:13:31.062Z,-2.04
2023-03-17T05:16:04.697Z,-2.04
2023-03-17T05:18:37.261Z,-2.02
2023-03-17T05:21:06.361Z,-2.01
2023-03-17T05:23:35.200Z,-1.99
2023-03-17T05:26:03.345Z,-1.96
2023-03-17T05:28:32.489Z,-1.93
2023-03-17T05:31:00.833Z,-1.90
2023-03-17T05:33:29.173Z,-1.84
2023-03-17T05:35:57.521Z,-1.80
2023-03-17T05:38:25.892Z,-1.76
2023-03-17T05:40:54.572Z,-1.72
2023-03-17T05:43:22.704Z,-1.66
2023-03-17T05:45:50.878Z,-1.61
2023-03-17T05:48:19.148Z,-1.55
2023-03-17T05:50:47.670Z,-1.47
2023-03-17T05:53:16.289Z,-1.39
2023-03-17T05:55:44.856Z,-1.31
2023-03-17T05:58:15.594Z,-1.23
2023-03-17T06:00:44.310Z,-1.16
2023-03-17T06:03:12.849Z,-1.06
2023-03-17T06:05:41.404Z,-0.97
2023-03-17T06:08:10.327Z,-0.87
2023-03-17T06:10:38.374Z,-0.77
2023-03-17T06:13:06.471Z,-0.67
2023-03-17T06:15:36.943Z,-0.56
2023-03-17T06:18:05.863Z,-0.44
2023-03-17T06:20:35.078Z,-0.34
2023-03-17T06:23:05.607Z,-0.23
2023-03-17T06:25:35.792Z,-0.11
2023-03-17T06:28:06.487Z,0.01
2023-03-17T06:30:37.551Z,0.12
2023-03-17T06:33:08.274Z,0.23
2023-03-17T06:35:39.865Z,0.34
2023-03-17T06:38:08.125Z,0.46
2023-03-17T06:40:37.052Z,0.57
2023-03-17T06:43:05.261Z,0.68
2023-03-17T06:45:33.685Z,0.80
2023-03-17T06:48:02.321Z,0.91
2023-03-17T06:50:30.440Z,1.03
2023-03-17T06:52:58.620Z,1.15
2023-03-17T06:55:27.392Z,1.26
2023-03-17T06:57:55.675Z,1.38
2023-03-17T07:00:23.860Z,1.52
2023-03-17T07:02:52.664Z,1.66
2023-03-17T07:05:20.941Z,1.78
2023-03-17T07:07:50.139Z,1.92
2023-03-17T07:10:18.744Z,2.05
2023-03-17T07:12:47.017Z,2.18
2023-03-17T07:15:15.603Z,2.30
2023-03-17T07:17:43.648Z,2.46
2023-03-17T07:20:12.063Z,2.61
2023-03-17T07:22:40.952Z,2.75
2023-03-17T07:25:09.854Z,2.89
2023-03-17T07:27:38.500Z,3.04
2023-03-17T07:30:07.522Z,3.18
2023-03-17T07:32:36.300Z,3.32
2023-03-17T07:35:05.562Z,3.44
2023-03-17T07:37:33.892Z,3.56
2023-03-17T07:40:02.379Z,3.66
2023-03-17T07:42:30.476Z,3.78
2023-03-17T07:44:58.581Z,3.90
2023-03-17T07:47:28.983Z,4.02
2023-03-17T07:49:57.418Z,4.16
2023-03-17T07:52:25.630Z,4.27
2023-03-17T07:54:53.977Z,4.36
2023-03-17T07:57:22.453Z,4.46
2023-03-17T07:59:50.787Z,4.56
2023-03-17T08:02:19.672Z,4.64
2023-03-17T08:04:48.129Z,4.72
2023-03-17T08:07:16.498Z,4.81
2023-03-17T08:09:46.985Z,4.89
2023-03-17T08:12:15.236Z,4.98
2023-03-17T08:14:43.582Z,5.10
2023-03-17T08:17:13.604Z,5.26
2023-03-17T08:19:42.439Z,5.41
2023-03-17T08:22:10.948Z,5.58
2023-03-17T08:24:41.199Z,5.75
2023-03-17T08:27:09.650Z,5.91
2023-03-17T08:29:39.723Z,6.04
2023-03-17T08:32:08.819Z,6.16
2023-03-17T08:34:38.133Z,6.23
2023-03-17T08:37:10.040Z,6.34
2023-03-17T08:39:39.517Z,6.45
2023-03-17T08:42:08.314Z,6.58
2023-03-17T08:44:36.539Z,6.76
2023-03-17T08:47:05.799Z,6.90
2023-03-17T08:49:36.157Z,7.08
2023-03-17T08:52:04.709Z,7.23
2023-03-17T08:54:34.662Z,7.35
2023-03-17T08:57:04.127Z,7.51
2023-03-17T08:59:33.672Z,7.67
2023-03-17T09:02:01.754Z,7.84
2023-03-17T09:04:30.358Z,7.98
2023-03-17T09:07:03.647Z,8.05
2023-03-17T09:09:35.294Z,8.05
2023-03-17T09:12:06.342Z,8.08
2023-03-17T09:14:42.961Z,8.17
2023-03-17T09:17:14.497Z,8.25
2023-03-17T09:19:43.651Z,8.33
2023-03-17T09:22:14.478Z,8.42
2023-03-17T09:24:42.710Z,8.63
2023-03-17T09:27:11.200Z,8.92
2023-03-17T09:29:39.672Z,9.14
2023-03-17T09:32:08.806Z,9.38
2023-03-17T09:34:36.979Z,9.55
2023-03-17T09:37:05.190Z,9.59
2023-03-17T09:39:33.553Z,9.74
2023-03-17T09:42:19.777Z,9.77
2023-03-17T09:45:15.380Z,9.77
2023-03-17T09:47:43.476Z,9.87
2023-03-17T09:50:22.388Z,9.90
2023-03-17T09:52:52.430Z,9.91
2023-03-17T09:55:29.006Z,10.02
2023-03-17T09:58:00.778Z,10.19
2023-03-17T10:00:31.156Z,10.31
2023-03-17T10:03:00.214Z,10.39
2023-03-17T10:05:35.180Z,10.40
2023-03-17T10:08:31.774Z,10.46
2023-03-17T10:11:35.289Z,10.60
2023-03-17T10:14:03.848Z,10.66
2023-03-17T10:17:01.885Z,10.70
2023-03-17T10:19:40.737Z,10.83
2023-03-17T10:22:23.706Z,10.96
2023-03-17T10:24:57.726Z,11.06
2023-03-17T10:27:34.479Z,11.15
2023-03-17T10:30:03.654Z,11.26
2023-03-17T10:32:38.018Z,11.43
2023-03-17T10:35:07.741Z,11.66
2023-03-17T10:37:36.756Z,11.84
2023-03-17T10:40:30.610Z,12.06
2023-03-17T10:43:08.035Z,12.14
2023-03-17T10:45:44.008Z,12.23
2023-03-17T10:48:19.191Z,12.20
2023-03-17T10:50:49.541Z,12.02
2023-03-17T10:53:28.214Z,12.08
2023-03-17T10:56:25.483Z,12.18
2023-03-17T10:59:17.995Z,12.19
2023-03-17T11:01:52.250Z,12.21
2023-03-17T11:04:35.155Z,12.33
2023-03-17T11:07:15.524Z,12.55
2023-03-17T11:09:48.953Z,12.60
2023-03-17T11:12:25.678Z,12.50
2023-03-17T11:15:03.379Z,12.43
2023-03-17T11:17:38.480Z,12.56
2023-03-17T11:20:43.439Z,12.59
2023-03-17T11:23:37.528Z,12.56
2023-03-17T11:26:16.830Z,12.50
2023-03-17T11:29:05.931Z,12.52
2023-03-17T11:31:43.851Z,12.56
2023-03-17T11:34:35.471Z,12.59
2023-03-17T11:37:18.918Z,12.52
2023-03-17T11:40:04.352Z,12.45
2023-03-17T11:42:39.656Z,12.45
2023-03-17T11:45:26.720Z,12.54
2023-03-17T11:48:08.748Z,12.75
2023-03-17T11:50:49.547Z,12.98
2023-03-17T11:53:18.186Z,13.30
2023-03-17T11:56:30.823Z,13.55
2023-03-17T11:59:02.133Z,13.60
2023-03-17T12:01:42.834Z,13.63
2023-03-17T12:04:22.080Z,13.72
2023-03-17T12:06:58.004Z,13.93
2023-03-17T12:09:46.531Z,14.09
2023-03-17T12:12:22.881Z,14.20
2023-03-17T12:14:54.193Z,14.12
2023-03-17T12:17:30.459Z,13.96
2023-03-17T12:20:34.078Z,13.83
2023-03-17T12:23:21.358Z,13.77
2023-03-17T12:29:09.313Z,13.73
2023-03-17T12:31:52.856Z,13.72
2023-03-17T12:34:28.884Z,13.73
2023-03-17T12:36:59.487Z,13.73
2023-03-17T12:39:37.810Z,13.64
2023-03-17T12:42:27.451Z,13.63
2023-03-17T12:45:17.069Z,13.71
2023-03-17T12:48:06.069Z,13.70
2023-03-17T12:50:43.021Z,13.61
2023-03-17T12:53:32.845Z,13.51
2023-03-17T12:56:50.687Z,13.49
2023-03-17T12:59:26.257Z,13.62
2023-03-17T13:02:44.684Z,13.84
2023-03-17T13:05:19.816Z,13.89
2023-03-17T13:07:57.585Z,13.92
2023-03-17T13:10:48.775Z,14.02
2023-03-17T13:13:41.061Z,14.06
2023-03-17T13:16:39.545Z,14.06
2023-03-17T13:19:16.119Z,14.04
2023-03-17T13:22:14.355Z,14.02
2023-03-17T13:24:47.515Z,14.01
2023-03-17T13:27:38.844Z,13.95
2023-03-17T13:30:32.304Z,13.73
2023-03-17T13:33:31.076Z,13.57
2023-03-17T13:42:25.377Z,13.65
2023-03-17T13:45:37.732Z,13.72
2023-03-17T13:48:41.733Z,13.76
2023-03-17T13:51:26.374Z,13.70
2023-03-17T13:54:29.838Z,13.74
2023-03-17T13:57:26.797Z,13.94
2023-03-17T14:00:37.708Z,14.03
2023-03-17T14:03:35.978Z,13.89
2023-03-17T14:06:06.728Z,13.79
2023-03-17T14:09:08.361Z,13.74
2023-03-17T14:11:41.554Z,13.62
2023-03-17T14:14:32.661Z,13.51
2023-03-17T14:17:35.499Z,13.37
2023-03-17T14:20:19.881Z,13.14
2023-03-17T14:22:56.675Z,12.90
2023-03-17T14:25:39.048Z,12.70
2023-03-17T14:28:15.999Z,12.52
2023-03-17T14:30:56.914Z,12.36
2023-03-17T14:33:34.682Z,12.24
2023-03-17T14:36:06.399Z,12.13
2023-03-17T14:38:37.645Z,12.02
2023-03-17T14:41:07.532Z,11.90
2023-03-17T14:43:36.757Z,11.77
2023-03-17T14:46:13.249Z,11.69
2023-03-17T14:48:43.741Z,11.64
2023-03-17T14:51:23.555Z,11.55
2023-03-17T14:53:53.874Z,11.46
2023-03-17T14:56:27.460Z,11.39
2023-03-17T14:59:06.484Z,11.33
2023-03-17T15:01:42.532Z,11.24
2023-03-17T15:04:18.061Z,11.18
2023-03-17T15:06:52.023Z,11.13
2023-03-17T15:09:29.038Z,11.08
2023-03-17T15:12:07.211Z,11.00
2023-03-17T15:14:38.996Z,10.93
2023-03-17T15:17:27.630Z,10.87
2023-03-17T15:20:00.466Z,10.80
2023-03-17T15:22:34.554Z,10.76
2023-03-17T15:25:15.004Z,10.74
2023-03-17T15:27:43.820Z,10.72
2023-03-17T15:30:12.798Z,10.69
2023-03-17T15:32:41.019Z,10.64
2023-03-17T15:35:13.676Z,10.58
2023-03-17T15:37:42.275Z,10.53
2023-03-17T15:40:11.280Z,10.46
2023-03-17T15:42:39.843Z,10.36
2023-03-17T15:45:08.875Z,10.23
2023-03-17T15:47:39.999Z,10.14
2023-03-17T15:50:25.674Z,10.06
2023-03-17T15:52:55.707Z,9.98
2023-03-17T15:55:31.298Z,9.88
2023-03-17T15:58:00.125Z,9.78
2023-03-17T16:00:30.206Z,9.67
2023-03-17T16:03:22.053Z,9.56
2023-03-17T16:05:50.423Z,9.45
2023-03-17T16:08:19.105Z,9.33
2023-03-17T16:10:47.552Z,9.23
2023-03-17T16:13:15.785Z,9.15
2023-03-17T16:15:50.310Z,9.06
2023-03-17T16:18:28.515Z,8.99
2023-03-17T16:20:56.919Z,8.90
2023-03-17T16:23:28.730Z,8.83
2023-03-17T16:26:13.693Z,8.74
2023-03-17T16:28:44.959Z,8.65
2023-03-17T16:31:19.944Z,8.55
2023-03-17T16:33:49.377Z,8.44
2023-03-17T16:36:19.517Z,8.34
2023-03-17T16:38:49.641Z,8.24
2023-03-17T16:41:24.445Z,8.14
2023-03-17T16:43:58.180Z,8.07
2023-03-17T16:46:26.558Z,8.00
2023-03-17T16:48:56.213Z,7.94
2023-03-17T16:51:25.060Z,7.87
2023-03-17T16:53:53.285Z,7.80
2023-03-17T16:56:23.078Z,7.74
2023-03-17T16:58:51.265Z,7.69
2023-03-17T17:01:26.155Z,7.64
2023-03-17T17:03:54.756Z,7.56
2023-03-17T17:06:23.981Z,7.47
2023-03-17T17:08:52.464Z,7.39
2023-03-17T17:11:20.886Z,7.33
2023-03-17T17:13:49.395Z,7.28
2023-03-17T17:16:32.162Z,7.22
2023-03-17T17:19:01.294Z,7.18
2023-03-17T17:21:31.149Z,7.16
2023-03-17T17:23:59.316Z,7.12
2023-03-17T17:26:27.491Z,7.09
2023-03-17T17:28:55.648Z,7.06
2023-03-17T17:31:23.691Z,7.03
2023-03-17T17:33:51.903Z,6.99
2023-03-17T17:36:19.929Z,6.95
2023-03-17T17:38:48.026Z,6.90
2023-03-17T17:41:17.105Z,6.84
2023-03-17T17:43:46.239Z,6.78
2023-03-17T17:46:21.316Z,6.73
2023-03-17T17:48:50.154Z,6.68
2023-03-17T17:51:18.279Z,6.62
2023-03-17T17:53:46.304Z,6.56
2023-03-17T17:56:16.801Z,6.51
2023-03-17T17:58:45.234Z,6.45
2023-03-17T18:01:16.863Z,6.41
2023-03-17T18:03:45.697Z,6.37
2023-03-17T18:06:14.256Z,6.31
2023-03-17T18:08:43.537Z,6.28
2023-03-17T18:11:12.322Z,6.22
2023-03-17T18:13:41.010Z,6.18
2023-03-17T18:16:15.054Z,6.13
2023-03-17T18:18:45.640Z,6.08
2023-03-17T18:21:14.078Z,6.03
2023-03-17T18:23:46.980Z,5.98
2023-03-17T18:26:16.791Z,5.94
2023-03-17T18:28:45.225Z,5.90
2023-03-17T18:31:18.803Z,5.86
2023-03-17T18:33:49.359Z,5.81
2023-03-17T18:36:18.968Z,5.78
2023-03-17T18:38:47.135Z,5.74
2023-03-17T18:41:15.424Z,5.70
2023-03-17T18:43:44.911Z,5.64
2023-03-17T18:46:13.438Z,5.60
2023-03-17T18:48:41.879Z,5.56
2023-03-17T18:51:10.341Z,5.52
2023-03-17T18:53:39.244Z,5.48
2023-03-17T18:56:07.762Z,5.46
2023-03-17T18:58:36.457Z,5.42
2023-03-17T19:01:04.876Z,5.42
2023-03-17T19:03:33.757Z,5.40
2023-03-17T19:06:13.916Z,5.37
2023-03-17T19:08:43.264Z,5.36
2023-03-17T19:11:13.934Z,5.32
2023-03-17T19:13:42.752Z,5.29
2023-03-17T19:16:11.584Z,5.26
2023-03-17T19:18:42.215Z,5.25
2023-03-17T19:21:11.958Z,5.21
2023-03-17T19:23:41.458Z,5.17
2023-03-17T19:26:10.450Z,5.14
2023-03-17T19:28:38.814Z,5.13
2023-03-17T19:31:07.480Z,5.10
2023-03-17T19:33:36.481Z,5.08
2023-03-17T19:36:11.603Z,5.05
2023-03-17T19:38:40.997Z,5.02
2023-03-17T19:41:09.316Z,4.99
2023-03-17T19:43:41.109Z,4.97
2023-03-17T19:46:11.407Z,4.94
2023-03-17T19:48:40.704Z,4.92
2023-03-17T19:51:09.404Z,4.89
2023-03-17T19:53:37.805Z,4.87
2023-03-17T19:56:06.730Z,4.84
2023-03-17T19:58:34.929Z,4.81
2023-03-17T20:01:04.878Z,4.77
2023-03-17T20:03:33.802Z,4.75
2023-03-17T20:06:06.058Z,4.73
2023-03-17T20:08:35.803Z,4.71
2023-03-17T20:11:05.996Z,4.69
2023-03-17T20:13:35.864Z,4.67
2023-03-17T20:16:05.904Z,4.64
2023-03-17T20:18:35.085Z,4.60
2023-03-17T20:21:11.669Z,4.56
2023-03-17T20:23:39.863Z,4.55
2023-03-17T20:26:09.280Z,4.54
2023-03-17T20:28:38.725Z,4.51
2023-03-17T20:31:08.046Z,4.48
2023-03-17T20:33:36.458Z,4.47
2023-03-17T20:36:05.074Z,4.45
2023-03-17T20:38:36.877Z,4.42
2023-03-17T20:41:12.548Z,4.38
2023-03-17T20:43:41.766Z,4.34
2023-03-17T20:46:18.823Z,4.32
2023-03-17T20:48:52.078Z,4.30
2023-03-17T20:51:20.430Z,4.28
2023-03-17T20:53:49.824Z,4.25
2023-03-17T20:56:20.349Z,4.22
2023-03-17T20:58:50.077Z,4.19
2023-03-17T21:01:21.182Z,4.17
2023-03-17T21:03:50.316Z,4.15
2023-03-17T21:06:18.895Z,4.11
2023-03-17T21:08:46.985Z,4.08
2023-03-17T21:11:17.654Z,4.05
2023-03-17T21:13:47.094Z,4.03
2023-03-17T21:16:19.029Z,3.99
2023-03-17T21:18:47.871Z,3.93
2023-03-17T21:21:17.236Z,3.87
2023-03-17T21:23:45.821Z,3.80
2023-03-17T21:26:14.983Z,3.75
2023-03-17T21:28:43.888Z,3.69
2023-03-17T21:31:12.884Z,3.61
2023-03-17T21:33:42.238Z,3.53
2023-03-17T21:36:11.180Z,3.47
2023-03-17T21:38:39.304Z,3.42
2023-03-17T21:41:22.391Z,3.37
2023-03-17T21:43:50.641Z,3.31
2023-03-17T21:46:18.777Z,3.28
2023-03-17T21:48:46.917Z,3.27
2023-03-17T21:51:15.194Z,3.24
2023-03-17T21:53:43.561Z,3.16
2023-03-17T21:56:12.628Z,3.05
2023-03-17T21:58:41.236Z,2.96
2023-03-17T22:01:09.398Z,2.85
2023-03-17T22:03:39.587Z,2.76
2023-03-17T22:06:09.856Z,2.68
2023-03-17T22:08:38.146Z,2.61
2023-03-17T22:11:08.097Z,2.57
2023-03-17T22:13:36.741Z,2.53
2023-03-17T22:16:05.387Z,2.46
2023-03-17T22:18:33.557Z,2.35
2023-03-17T22:21:01.821Z,2.28
2023-03-17T22:23:30.404Z,2.24
2023-03-17T22:25:58.715Z,2.17
2023-03-17T22:28:26.862Z,2.14
2023-03-17T22:30:54.949Z,2.09
2023-03-17T22:33:23.302Z,2.08
2023-03-17T22:35:51.489Z,2.08
2023-03-17T22:38:19.725Z,2.05
2023-03-17T22:40:47.791Z,2.02
2023-03-17T22:43:15.972Z,2.01
2023-03-17T22:45:44.057Z,1.98
2023-03-17T22:48:12.098Z,1.89
2023-03-17T22:50:42.631Z,1.79
2023-03-17T22:53:10.740Z,1.72
2023-03-17T22:55:39.066Z,1.65
2023-03-17T22:58:07.170Z,1.58
2023-03-17T23:00:36.235Z,1.48
2023-03-17T23:03:04.425Z,1.39
2023-03-17T23:05:33.010Z,1.34
2023-03-17T23:08:01.254Z,1.29
2023-03-17T23:10:29.801Z,1.24
2023-03-17T23:12:58.276Z,1.21
2023-03-17T23:15:26.695Z,1.20
2023-03-17T23:17:54.878Z,1.18
2023-03-17T23:20:23.213Z,1.14
2023-03-17T23:22:51.519Z,1.10
2023-03-17T23:25:20.133Z,1.05
2023-03-17T23:27:49.110Z,0.99
2023-03-17T23:30:18.065Z,0.96
2023-03-17T23:32:46.898Z,0.92
2023-03-17T23:35:15.965Z,0.89
2023-03-17T23:37:44.054Z,0.85
2023-03-17T23:40:16.060Z,0.81
2023-03-17T23:42:46.085Z,0.79
2023-03-17T23:45:18.167Z,0.77
2023-03-17T23:47:47.397Z,0.75
2023-03-17T23:50:16.140Z,0.70
2023-03-17T23:52:45.031Z,0.64
2023-03-17T23:55:13.233Z,0.61
2023-03-17T23:57:41.998Z,0.58
